Wetterdaten: Woche 29.08.16 - 04.09.16 (KW35)
Datum Zeit Temp. I. Temp. A. Feuchte I. Feuchte A. Luftdruck Regen Wind Richtung Sonnenschein UV Solar Taupunkt Windchill Windben
29.08.2016 00:00 25,8 C 19,2 C 56 % 78 % 1014,3 hPa 0,0 l/m 0,0 km/h (0 Bft) N 0,00 h 0,0 UV-I 0 W/m 15,2 C 19,2 C 0,0 km/h (0 Bft)
29.08.2016 01:00 25,8 C 18,0 C 56 % 82 % 1014,6 hPa 0,0 l/m 0,0 km/h (0 Bft) N 0,00 h 0,0 UV-I 0 W/m 14,9 C 18,0 C 0,0 km/h (0 Bft)
29.08.2016 02:00 25,9 C 17,7 C 56 % 84 % 1014,6 hPa 0,0 l/m 0,0 km/h (0 Bft) N 0,00 h 0,0 UV-I 0 W/m 15,0 C 17,7 C 0,0 km/h (0 Bft)
29.08.2016 03:00 25,9 C 17,7 C 56 % 85 % 1014,2 hPa 0,0 l/m 0,0 km/h (0 Bft) N 0,00 h 0,0 UV-I 0 W/m 15,2 C 17,7 C 0,0 km/h (0 Bft)
29.08.2016 04:00 25,9 C 17,3 C 56 % 88 % 1014,0 hPa 0,0 l/m 0,0 km/h (0 Bft) N 0,00 h 0,0 UV-I 0 W/m 15,3 C 17,3 C 0,1 km/h (0 Bft)
29.08.2016 05:00 25,8 C 16,7 C 56 % 90 % 1014,2 hPa 0,4 l/m 0,0 km/h (0 Bft) N 0,00 h 0,0 UV-I 0 W/m 15,1 C 16,7 C 0,0 km/h (0 Bft)
29.08.2016 06:00 25,5 C 16,4 C 57 % 92 % 1014,7 hPa 0,2 l/m 0,0 km/h (0 Bft) N 0,00 h 0,0 UV-I 7 W/m 15,1 C 16,4 C 0,2 km/h (0 Bft)
29.08.2016 07:00 25,3 C 16,3 C 57 % 93 % 1015,3 hPa 0,0 l/m 0,0 km/h (0 Bft) N 0,00 h 0,0 UV-I 16 W/m 15,2 C 16,3 C 0,0 km/h (0 Bft)
29.08.2016 08:00 25,3 C 17,0 C 57 % 93 % 1015,6 hPa 0,0 l/m 0,0 km/h (0 Bft) N 0,48 h 0,8 UV-I 146 W/m 15,9 C 17,0 C 0,0 km/h (0 Bft)
29.08.2016 09:00 25,5 C 19,5 C 57 % 85 % 1015,8 hPa 0,0 l/m 0,1 km/h (0 Bft) NW 0,85 h 1,3 UV-I 226 W/m 16,9 C 19,5 C 0,5 km/h (0 Bft)
29.08.2016 10:00 25,5 C 21,9 C 58 % 74 % 1016,0 hPa 0,0 l/m 0,8 km/h (0 Bft) N-NO 1,00 h 2,8 UV-I 507 W/m 17,1 C 21,9 C 2,2 km/h (1 Bft)
29.08.2016 11:00 25,6 C 22,8 C 57 % 63 % 1015,9 hPa 0,0 l/m 1,1 km/h (0 Bft) SO 0,82 h 2,9 UV-I 380 W/m 15,4 C 22,8 C 2,5 km/h (1 Bft)
29.08.2016 12:00 25,6 C 23,1 C 56 % 63 % 1015,8 hPa 0,0 l/m 5,6 km/h (1 Bft) S-SO 1,00 h 3,5 UV-I 427 W/m 15,7 C 22,7 C 9,6 km/h (2 Bft)
29.08.2016 13:00 25,7 C 23,9 C 55 % 58 % 1015,7 hPa 0,0 l/m 8,7 km/h (2 Bft) S 1,00 h 3,3 UV-I 439 W/m 15,0 C 23,2 C 13,8 km/h (3 Bft)
29.08.2016 14:00 25,5 C 23,6 C 55 % 61 % 1015,8 hPa 0,0 l/m 5,5 km/h (1 Bft) W-NW 0,90 h 3,3 UV-I 449 W/m 15,5 C 23,4 C 11,7 km/h (2 Bft)
29.08.2016 15:00 25,7 C 24,8 C 54 % 51 % 1015,8 hPa 0,0 l/m 7,5 km/h (2 Bft) W-NW 1,00 h 3,0 UV-I 511 W/m 14,0 C 24,3 C 14,8 km/h (3 Bft)
29.08.2016 16:00 25,4 C 25,2 C 51 % 44 % 1015,8 hPa 0,0 l/m 8,4 km/h (2 Bft) W-NW 0,98 h 2,3 UV-I 476 W/m 12,0 C 24,6 C 16,4 km/h (3 Bft)
29.08.2016 17:00 25,2 C 24,3 C 48 % 41 % 1016,0 hPa 0,0 l/m 4,3 km/h (1 Bft) W-NW 0,52 h 1,1 UV-I 204 W/m 10,2 C 24,1 C 10,0 km/h (2 Bft)
29.08.2016 18:00 25,0 C 23,0 C 49 % 48 % 1016,5 hPa 0,0 l/m 2,7 km/h (1 Bft) NW 0,02 h 0,5 UV-I 79 W/m 11,4 C 23,0 C 7,3 km/h (2 Bft)
29.08.2016 19:00 25,1 C 21,5 C 49 % 56 % 1017,0 hPa 0,0 l/m 2,1 km/h (1 Bft) N 0,00 h 0,0 UV-I 27 W/m 12,2 C 21,4 C 5,6 km/h (1 Bft)
29.08.2016 20:00 25,5 C 19,2 C 50 % 67 % 1018,0 hPa 0,0 l/m 0,1 km/h (0 Bft) N 0,00 h 0,0 UV-I 0 W/m 13,0 C 19,2 C 0,4 km/h (0 Bft)
29.08.2016 21:00 25,4 C 18,1 C 50 % 71 % 1019,2 hPa 0,0 l/m 0,6 km/h (0 Bft) N 0,00 h 0,0 UV-I 0 W/m 12,8 C 18,1 C 1,9 km/h (1 Bft)
29.08.2016 22:00 25,5 C 17,3 C 51 % 74 % 1019,8 hPa 0,0 l/m 0,0 km/h (0 Bft) N 0,00 h 0,0 UV-I 0 W/m 12,7 C 17,3 C 0,0 km/h (0 Bft)
29.08.2016 23:00 25,3 C 16,0 C 51 % 80 % 1020,4 hPa 0,0 l/m 0,0 km/h (0 Bft) N 0,00 h 0,0 UV-I 0 W/m 12,4 C 16,0 C 0,0 km/h (0 Bft)
30.08.2016 00:00 25,3 C 14,8 C 52 % 83 % 1020,8 hPa 0,0 l/m 0,0 km/h (0 Bft) N 0,00 h 0,0 UV-I 0 W/m 12,1 C 14,8 C 0,0 km/h (0 Bft)
30.08.2016 01:00 25,5 C 14,0 C 52 % 86 % 1021,2 hPa 0,0 l/m 0,0 km/h (0 Bft) N 0,00 h 0,0 UV-I 0 W/m 11,8 C 14,0 C 0,0 km/h (0 Bft)
30.08.2016 02:00 25,5 C 13,2 C 52 % 88 % 1021,4 hPa 0,0 l/m 0,0 km/h (0 Bft) N 0,00 h 0,0 UV-I 0 W/m 11,2 C 13,2 C 0,0 km/h (0 Bft)
30.08.2016 03:00 25,4 C 12,2 C 52 % 89 % 1021,6 hPa 0,0 l/m 0,0 km/h (0 Bft) N 0,00 h 0,0 UV-I 0 W/m 10,5 C 12,2 C 0,0 km/h (0 Bft)
30.08.2016 04:00 25,3 C 11,4 C 51 % 91 % 1021,9 hPa 0,0 l/m 0,0 km/h (0 Bft) N 0,00 h 0,0 UV-I 0 W/m 10,0 C 11,4 C 0,0 km/h (0 Bft)
30.08.2016 05:00 25,2 C 11,0 C 51 % 92 % 1022,1 hPa 0,0 l/m 0,0 km/h (0 Bft) N 0,00 h 0,0 UV-I 0 W/m 9,7 C 11,0 C 0,0 km/h (0 Bft)
30.08.2016 06:00 24,8 C 10,3 C 51 % 92 % 1022,7 hPa 0,0 l/m 1,6 km/h (1 Bft) N 0,00 h 0,0 UV-I 11 W/m 9,1 C 10,3 C 3,5 km/h (1 Bft)
30.08.2016 07:00 24,7 C 10,9 C 51 % 94 % 1023,2 hPa 0,0 l/m 0,2 km/h (0 Bft) N-NO 0,08 h 0,5 UV-I 63 W/m 10,0 C 10,9 C 0,7 km/h (0 Bft)
30.08.2016 08:00 24,6 C 14,0 C 51 % 92 % 1023,8 hPa 0,0 l/m 2,6 km/h (1 Bft) N 1,00 h 0,9 UV-I 267 W/m 12,7 C 13,9 C 5,9 km/h (2 Bft)
30.08.2016 09:00 24,8 C 16,9 C 51 % 78 % 1024,2 hPa 0,0 l/m 6,0 km/h (2 Bft) N 1,00 h 1,9 UV-I 444 W/m 13,0 C 16,5 C 10,3 km/h (2 Bft)
30.08.2016 10:00 24,8 C 19,3 C 51 % 67 % 1024,6 hPa 0,0 l/m 5,7 km/h (1 Bft) N-NO 1,00 h 3,1 UV-I 582 W/m 13,1 C 18,9 C 10,4 km/h (2 Bft)
30.08.2016 11:00 24,8 C 20,7 C 51 % 60 % 1024,5 hPa 0,0 l/m 3,6 km/h (1 Bft) N 0,95 h 4,0 UV-I 618 W/m 12,6 C 20,5 C 7,0 km/h (2 Bft)
30.08.2016 12:00 24,8 C 20,7 C 50 % 60 % 1024,1 hPa 0,0 l/m 2,4 km/h (1 Bft) N-NO 0,97 h 3,8 UV-I 454 W/m 12,6 C 20,7 C 5,4 km/h (1 Bft)
30.08.2016 13:00 24,8 C 21,1 C 50 % 57 % 1023,9 hPa 0,0 l/m 3,3 km/h (1 Bft) N 1,00 h 3,8 UV-I 404 W/m 12,2 C 21,0 C 6,3 km/h (2 Bft)
30.08.2016 14:00 24,9 C 22,6 C 50 % 52 % 1023,7 hPa 0,0 l/m 2,2 km/h (1 Bft) N-NO 1,00 h 4,4 UV-I 644 W/m 12,1 C 22,5 C 4,6 km/h (1 Bft)
30.08.2016 15:00 25,2 C 23,2 C 49 % 48 % 1023,3 hPa 0,0 l/m 1,3 km/h (1 Bft) N 1,00 h 3,4 UV-I 610 W/m 11,6 C 23,1 C 3,4 km/h (1 Bft)
30.08.2016 16:00 25,6 C 22,7 C 47 % 48 % 1022,8 hPa 0,0 l/m 1,8 km/h (1 Bft) SO 0,83 h 2,2 UV-I 432 W/m 11,1 C 22,7 C 3,8 km/h (1 Bft)
30.08.2016 17:00 25,3 C 22,3 C 47 % 49 % 1022,6 hPa 0,0 l/m 1,0 km/h (0 Bft) NO 0,95 h 1,2 UV-I 304 W/m 11,2 C 22,3 C 2,8 km/h (1 Bft)
30.08.2016 18:00 25,5 C 21,2 C 48 % 53 % 1022,4 hPa 0,0 l/m 0,4 km/h (0 Bft) O-NO 0,22 h 0,7 UV-I 63 W/m 11,2 C 21,2 C 1,5 km/h (1 Bft)
30.08.2016 19:00 25,5 C 19,6 C 49 % 61 % 1022,5 hPa 0,0 l/m 0,3 km/h (0 Bft) O-NO 0,00 h 0,0 UV-I 16 W/m 11,8 C 19,6 C 0,8 km/h (0 Bft)
30.08.2016 20:00 25,3 C 17,7 C 48 % 67 % 1022,9 hPa 0,0 l/m 1,1 km/h (0 Bft) N-NO 0,00 h 0,0 UV-I 0 W/m 11,4 C 17,7 C 3,3 km/h (1 Bft)
30.08.2016 21:00 25,6 C 16,5 C 49 % 67 % 1023,5 hPa 0,0 l/m 0,1 km/h (0 Bft) NO 0,00 h 0,0 UV-I 0 W/m 10,4 C 16,5 C 0,3 km/h (0 Bft)
30.08.2016 22:00 25,4 C 15,1 C 50 % 69 % 1023,7 hPa 0,0 l/m 0,2 km/h (0 Bft) O-NO 0,00 h 0,0 UV-I 0 W/m 9,5 C 15,1 C 1,3 km/h (1 Bft)
30.08.2016 23:00 25,3 C 13,8 C 50 % 70 % 1023,8 hPa 0,0 l/m 0,7 km/h (0 Bft) O-NO 0,00 h 0,0 UV-I 0 W/m 8,5 C 13,8 C 3,6 km/h (1 Bft)
31.08.2016 00:00 25,2 C 12,9 C 51 % 74 % 1024,1 hPa 0,0 l/m 0,1 km/h (0 Bft) O-NO 0,00 h 0,0 UV-I 0 W/m 8,3 C 12,9 C 1,0 km/h (0 Bft)
31.08.2016 01:00 25,2 C 12,6 C 51 % 74 % 1023,8 hPa 0,0 l/m 0,6 km/h (0 Bft) O-NO 0,00 h 0,0 UV-I 0 W/m 8,0 C 12,6 C 2,9 km/h (1 Bft)
31.08.2016 02:00 25,1 C 12,2 C 51 % 76 % 1023,6 hPa 0,0 l/m 0,1 km/h (0 Bft) O-NO 0,00 h 0,0 UV-I 0 W/m 8,0 C 12,2 C 1,1 km/h (0 Bft)
31.08.2016 03:00 25,2 C 11,8 C 52 % 78 % 1023,4 hPa 0,0 l/m 0,9 km/h (0 Bft) N-NO 0,00 h 0,0 UV-I 0 W/m 8,1 C 11,8 C 3,6 km/h (1 Bft)
31.08.2016 04:00 25,3 C 11,6 C 53 % 78 % 1023,2 hPa 0,0 l/m 1,2 km/h (1 Bft) O-NO 0,00 h 0,0 UV-I 0 W/m 7,9 C 11,6 C 3,3 km/h (1 Bft)
31.08.2016 05:00 25,4 C 11,3 C 53 % 79 % 1022,9 hPa 0,0 l/m 2,0 km/h (1 Bft) O-NO 0,00 h 0,0 UV-I 0 W/m 7,7 C 11,3 C 5,1 km/h (1 Bft)
31.08.2016 06:00 25,2 C 11,1 C 53 % 79 % 1022,7 hPa 0,0 l/m 1,8 km/h (1 Bft) O-NO 0,00 h 0,0 UV-I 8 W/m 7,6 C 11,1 C 4,3 km/h (1 Bft)
31.08.2016 07:00 25,2 C 11,0 C 53 % 81 % 1022,7 hPa 0,0 l/m 0,0 km/h (0 Bft) N 0,08 h 0,5 UV-I 51 W/m 7,8 C 11,0 C 0,0 km/h (0 Bft)
31.08.2016 08:00 25,3 C 14,4 C 53 % 72 % 1022,6 hPa 0,0 l/m 0,2 km/h (0 Bft) O-NO 1,00 h 1,0 UV-I 316 W/m 9,5 C 14,4 C 0,7 km/h (0 Bft)
31.08.2016 09:00 25,4 C 17,7 C 52 % 58 % 1022,4 hPa 0,0 l/m 1,4 km/h (1 Bft) SO 1,00 h 2,0 UV-I 481 W/m 9,3 C 17,7 C 3,6 km/h (1 Bft)
31.08.2016 10:00 25,1 C 19,1 C 48 % 52 % 1022,5 hPa 0,0 l/m 3,9 km/h (1 Bft) SO 1,00 h 3,2 UV-I 610 W/m 9,1 C 19,1 C 8,7 km/h (2 Bft)
31.08.2016 11:00 25,2 C 20,7 C 48 % 48 % 1022,4 hPa 0,0 l/m 3,8 km/h (1 Bft) O-SO 1,00 h 4,4 UV-I 703 W/m 9,4 C 20,6 C 8,9 km/h (2 Bft)
31.08.2016 12:00 25,3 C 22,0 C 48 % 43 % 1022,0 hPa 0,0 l/m 3,7 km/h (1 Bft) SO 1,00 h 5,2 UV-I 751 W/m 8,8 C 21,9 C 8,7 km/h (2 Bft)
31.08.2016 13:00 25,3 C 23,5 C 48 % 37 % 1021,5 hPa 0,0 l/m 3,7 km/h (1 Bft) O-SO 1,00 h 5,3 UV-I 754 W/m 7,9 C 23,5 C 8,9 km/h (2 Bft)
31.08.2016 14:00 25,3 C 24,2 C 46 % 34 % 1020,9 hPa 0,0 l/m 3,3 km/h (1 Bft) SO 1,00 h 4,8 UV-I 710 W/m 7,5 C 24,1 C 8,7 km/h (2 Bft)
31.08.2016 15:00 25,3 C 24,5 C 42 % 34 % 1020,3 hPa 0,0 l/m 2,1 km/h (1 Bft) O 1,00 h 3,6 UV-I 619 W/m 7,7 C 24,5 C 5,8 km/h (2 Bft)
31.08.2016 16:00 25,7 C 24,6 C 42 % 34 % 1019,9 hPa 0,0 l/m 1,2 km/h (1 Bft) SO 1,00 h 2,4 UV-I 492 W/m 7,5 C 24,5 C 4,2 km/h (1 Bft)
31.08.2016 17:00 25,6 C 24,1 C 41 % 33 % 1019,7 hPa 0,0 l/m 1,1 km/h (1 Bft) SO 1,00 h 1,2 UV-I 301 W/m 7,0 C 24,1 C 3,8 km/h (1 Bft)
31.08.2016 18:00 25,5 C 23,3 C 42 % 36 % 1019,3 hPa 0,0 l/m 0,6 km/h (0 Bft) O-NO 0,38 h 0,6 UV-I 95 W/m 7,4 C 23,3 C 2,4 km/h (1 Bft)
31.08.2016 19:00 25,6 C 21,6 C 43 % 43 % 1019,3 hPa 0,0 l/m 0,0 km/h (0 Bft) O 0,00 h 0,0 UV-I 11 W/m 8,4 C 21,6 C 0,1 km/h (0 Bft)
31.08.2016 20:00 25,6 C 19,0 C 43 % 54 % 1019,7 hPa 0,0 l/m 0,0 km/h (0 Bft) N 0,00 h 0,0 UV-I 0 W/m 9,5 C 19,0 C 0,0 km/h (0 Bft)
31.08.2016 21:00 25,6 C 16,9 C 44 % 63 % 1019,8 hPa 0,0 l/m 0,0 km/h (0 Bft) O-NO 0,00 h 0,0 UV-I 0 W/m 9,7 C 16,9 C 0,1 km/h (0 Bft)
31.08.2016 22:00 25,5 C 15,1 C 45 % 70 % 1019,9 hPa 0,0 l/m 0,0 km/h (0 Bft) N 0,00 h 0,0 UV-I 0 W/m 9,6 C 15,1 C 0,0 km/h (0 Bft)
31.08.2016 23:00 25,3 C 13,5 C 45 % 75 % 1020,2 hPa 0,0 l/m 0,0 km/h (0 Bft) N 0,00 h 0,0 UV-I 0 W/m 9,2 C 13,5 C 0,0 km/h (0 Bft)
01.09.2016 00:00 25,2 C 12,5 C 46 % 79 % 1020,4 hPa 0,0 l/m 0,0 km/h (0 Bft) N 0,00 h 0,0 UV-I 0 W/m 9,0 C 12,5 C 0,0 km/h (0 Bft)
01.09.2016 01:00 25,2 C 11,6 C 46 % 82 % 1020,4 hPa 0,0 l/m 0,0 km/h (0 Bft) N 0,00 h 0,0 UV-I 0 W/m 8,6 C 11,6 C 0,0 km/h (0 Bft)
01.09.2016 02:00 25,2 C 10,9 C 47 % 85 % 1020,5 hPa 0,0 l/m 0,0 km/h (0 Bft) N 0,00 h 0,0 UV-I 0 W/m 8,5 C 10,9 C 0,0 km/h (0 Bft)
01.09.2016 03:00 25,1 C 10,4 C 47 % 87 % 1020,4 hPa 0,0 l/m 0,0 km/h (0 Bft) N 0,00 h 0,0 UV-I 0 W/m 8,4 C 10,4 C 0,0 km/h (0 Bft)
01.09.2016 04:00 25,1 C 10,0 C 48 % 88 % 1020,5 hPa 0,0 l/m 0,0 km/h (0 Bft) N 0,00 h 0,0 UV-I 0 W/m 8,1 C 10,0 C 0,0 km/h (0 Bft)
01.09.2016 05:00 25,1 C 9,5 C 48 % 89 % 1020,2 hPa 0,0 l/m 0,0 km/h (0 Bft) N 0,00 h 0,0 UV-I 0 W/m 7,9 C 9,5 C 0,0 km/h (0 Bft)
01.09.2016 06:00 25,1 C 9,4 C 48 % 91 % 1020,5 hPa 0,0 l/m 0,7 km/h (0 Bft) W-NW 0,00 h 0,0 UV-I 11 W/m 8,0 C 9,4 C 1,4 km/h (1 Bft)
01.09.2016 07:00 25,0 C 10,6 C 48 % 92 % 1021,0 hPa 0,0 l/m 0,0 km/h (0 Bft) N 0,05 h 0,5 UV-I 58 W/m 9,3 C 10,6 C 0,0 km/h (0 Bft)
01.09.2016 08:00 25,1 C 14,0 C 48 % 84 % 1021,1 hPa 0,0 l/m 0,1 km/h (0 Bft) O-SO 0,65 h 0,7 UV-I 175 W/m 11,4 C 14,0 C 0,1 km/h (0 Bft)
01.09.2016 09:00 25,3 C 17,7 C 49 % 73 % 1021,2 hPa 0,0 l/m 0,0 km/h (0 Bft) N 0,93 h 1,6 UV-I 333 W/m 12,8 C 17,7 C 0,0 km/h (0 Bft)
01.09.2016 10:00 25,3 C 21,2 C 49 % 65 % 1021,3 hPa 0,0 l/m 1,1 km/h (0 Bft) W 1,00 h 2,7 UV-I 566 W/m 14,2 C 21,2 C 2,5 km/h (1 Bft)
01.09.2016 11:00 25,4 C 23,8 C 49 % 57 % 1021,1 hPa 0,0 l/m 1,5 km/h (1 Bft) SO 1,00 h 3,4 UV-I 595 W/m 14,6 C 23,8 C 3,5 km/h (1 Bft)
01.09.2016 12:00 25,5 C 25,0 C 49 % 51 % 1020,7 hPa 0,0 l/m 3,3 km/h (1 Bft) S 1,00 h 4,1 UV-I 561 W/m 14,0 C 24,9 C 7,0 km/h (2 Bft)
01.09.2016 13:00 25,4 C 25,8 C 50 % 47 % 1020,4 hPa 0,0 l/m 3,5 km/h (1 Bft) W-SW 1,00 h 4,2 UV-I 658 W/m 13,5 C 25,8 C 7,9 km/h (2 Bft)
01.09.2016 14:00 25,5 C 25,5 C 49 % 45 % 1019,9 hPa 0,0 l/m 4,6 km/h (1 Bft) W 0,73 h 2,7 UV-I 299 W/m 12,7 C 25,4 C 9,1 km/h (2 Bft)
01.09.2016 15:00 25,6 C 24,9 C 49 % 47 % 1019,7 hPa 0,0 l/m 3,4 km/h (1 Bft) W-SW 0,87 h 2,1 UV-I 341 W/m 12,7 C 24,8 C 6,7 km/h (2 Bft)
01.09.2016 16:00 25,8 C 25,5 C 49 % 47 % 1019,5 hPa 0,0 l/m 3,8 km/h (1 Bft) NW 0,65 h 1,2 UV-I 252 W/m 13,3 C 25,4 C 6,2 km/h (2 Bft)
01.09.2016 17:00 25,7 C 24,6 C 49 % 48 % 1019,4 hPa 0,0 l/m 4,9 km/h (1 Bft) W-SW 0,15 h 0,6 UV-I 126 W/m 12,9 C 24,5 C 9,1 km/h (2 Bft)
01.09.2016 18:00 25,7 C 23,9 C 49 % 51 % 1019,4 hPa 0,0 l/m 2,1 km/h (1 Bft) W 0,10 h 0,5 UV-I 69 W/m 13,2 C 23,9 C 4,9 km/h (1 Bft)
01.09.2016 19:00 25,8 C 22,5 C 50 % 58 % 1019,5 hPa 0,0 l/m 0,0 km/h (0 Bft) N 0,00 h 0,0 UV-I 14 W/m 13,9 C 22,5 C 0,1 km/h (0 Bft)
01.09.2016 20:00 25,6 C 20,1 C 51 % 69 % 1019,9 hPa 0,0 l/m 0,0 km/h (0 Bft) N 0,00 h 0,0 UV-I 0 W/m 14,3 C 20,1 C 0,0 km/h (0 Bft)
01.09.2016 21:00 25,8 C 18,4 C 51 % 77 % 1020,3 hPa 0,0 l/m 0,0 km/h (0 Bft) N 0,00 h 0,0 UV-I 0 W/m 14,2 C 18,4 C 0,0 km/h (0 Bft)
01.09.2016 22:00 25,8 C 17,3 C 51 % 80 % 1020,4 hPa 0,0 l/m 0,0 km/h (0 Bft) N 0,00 h 0,0 UV-I 0 W/m 13,7 C 17,3 C 0,0 km/h (0 Bft)
01.09.2016 23:00 25,6 C 16,0 C 52 % 83 % 1020,6 hPa 0,0 l/m 0,0 km/h (0 Bft) N 0,00 h 0,0 UV-I 0 W/m 13,1 C 16,0 C 0,0 km/h (0 Bft)
02.09.2016 00:00 25,4 C 14,8 C 52 % 86 % 1020,8 hPa 0,0 l/m 0,0 km/h (0 Bft) N 0,00 h 0,0 UV-I 0 W/m 12,4 C 14,8 C 0,0 km/h (0 Bft)
02.09.2016 01:00 25,3 C 13,8 C 52 % 87 % 1020,7 hPa 0,0 l/m 0,0 km/h (0 Bft) N 0,00 h 0,0 UV-I 0 W/m 11,8 C 13,8 C 0,0 km/h (0 Bft)
02.09.2016 02:00 25,5 C 12,9 C 53 % 88 % 1020,6 hPa 0,0 l/m 0,0 km/h (0 Bft) N 0,00 h 0,0 UV-I 0 W/m 11,1 C 12,9 C 0,0 km/h (0 Bft)
02.09.2016 03:00 25,5 C 12,3 C 53 % 90 % 1020,5 hPa 0,0 l/m 0,0 km/h (0 Bft) N 0,00 h 0,0 UV-I 0 W/m 10,7 C 12,3 C 0,0 km/h (0 Bft)
02.09.2016 04:00 25,4 C 11,7 C 53 % 90 % 1020,4 hPa 0,0 l/m 0,0 km/h (0 Bft) N 0,00 h 0,0 UV-I 0 W/m 10,1 C 11,7 C 0,0 km/h (0 Bft)
02.09.2016 05:00 25,4 C 11,0 C 53 % 91 % 1020,4 hPa 0,0 l/m 0,0 km/h (0 Bft) N 0,00 h 0,0 UV-I 0 W/m 9,6 C 11,0 C 0,0 km/h (0 Bft)
02.09.2016 06:00 25,3 C 10,6 C 53 % 92 % 1020,6 hPa 0,0 l/m 0,0 km/h (0 Bft) N 0,00 h 0,0 UV-I 10 W/m 9,4 C 10,6 C 0,0 km/h (0 Bft)
02.09.2016 07:00 25,2 C 10,7 C 53 % 93 % 1020,7 hPa 0,0 l/m 0,0 km/h (0 Bft) N 0,00 h 0,0 UV-I 47 W/m 9,6 C 10,7 C 0,0 km/h (0 Bft)
02.09.2016 08:00 25,4 C 13,1 C 53 % 92 % 1020,7 hPa 0,0 l/m 0,0 km/h (0 Bft) N 0,60 h 0,7 UV-I 188 W/m 11,8 C 13,1 C 0,0 km/h (0 Bft)
02.09.2016 09:00 25,5 C 17,9 C 53 % 78 % 1020,5 hPa 0,0 l/m 0,1 km/h (0 Bft) W 1,00 h 1,6 UV-I 396 W/m 13,9 C 17,9 C 0,5 km/h (0 Bft)
02.09.2016 10:00 25,3 C 21,1 C 52 % 65 % 1020,5 hPa 0,0 l/m 0,2 km/h (0 Bft) NW 1,00 h 2,7 UV-I 537 W/m 14,2 C 21,1 C 0,7 km/h (0 Bft)
02.09.2016 11:00 25,3 C 23,4 C 52 % 57 % 1020,4 hPa 0,0 l/m 1,6 km/h (1 Bft) W-NW 1,00 h 3,5 UV-I 551 W/m 14,3 C 23,4 C 3,7 km/h (1 Bft)
02.09.2016 12:00 25,5 C 24,7 C 50 % 49 % 1019,9 hPa 0,0 l/m 3,8 km/h (1 Bft) SW 1,00 h 4,5 UV-I 673 W/m 13,2 C 24,7 C 8,3 km/h (2 Bft)
02.09.2016 13:00 25,5 C 24,9 C 50 % 45 % 1019,3 hPa 0,0 l/m 3,4 km/h (1 Bft) W-SW 0,72 h 3,8 UV-I 461 W/m 12,2 C 24,9 C 7,8 km/h (2 Bft)
02.09.2016 14:00 25,6 C 25,1 C 50 % 45 % 1018,9 hPa 0,0 l/m 3,3 km/h (1 Bft) W-SW 0,60 h 3,3 UV-I 395 W/m 12,1 C 24,9 C 6,5 km/h (2 Bft)
02.09.2016 15:00 25,7 C 25,5 C 49 % 42 % 1018,5 hPa 0,0 l/m 3,4 km/h (1 Bft) S 0,82 h 2,7 UV-I 453 W/m 11,7 C 25,4 C 7,1 km/h (2 Bft)
02.09.2016 16:00 25,8 C 25,6 C 48 % 41 % 1018,1 hPa 0,0 l/m 2,9 km/h (1 Bft) W 0,77 h 1,8 UV-I 341 W/m 11,2 C 25,6 C 6,5 km/h (2 Bft)
02.09.2016 17:00 25,7 C 25,1 C 49 % 42 % 1017,9 hPa 0,0 l/m 3,7 km/h (1 Bft) W 0,82 h 1,0 UV-I 213 W/m 11,1 C 25,0 C 8,3 km/h (2 Bft)
02.09.2016 18:00 25,6 C 24,0 C 49 % 44 % 1017,8 hPa 0,0 l/m 3,4 km/h (1 Bft) W 0,00 h 0,5 UV-I 79 W/m 11,0 C 24,0 C 7,3 km/h (2 Bft)
02.09.2016 19:00 25,7 C 22,2 C 49 % 51 % 1018,0 hPa 0,0 l/m 0,2 km/h (0 Bft) W 0,00 h 0,0 UV-I 19 W/m 11,4 C 22,2 C 0,8 km/h (0 Bft)
02.09.2016 20:00 25,8 C 19,2 C 49 % 63 % 1018,3 hPa 0,0 l/m 0,0 km/h (0 Bft) N 0,00 h 0,0 UV-I 0 W/m 12,1 C 19,2 C 0,0 km/h (0 Bft)
02.09.2016 21:00 25,7 C 17,7 C 49 % 71 % 1018,6 hPa 0,0 l/m 0,0 km/h (0 Bft) N 0,00 h 0,0 UV-I 0 W/m 12,4 C 17,7 C 0,0 km/h (0 Bft)
02.09.2016 22:00 25,8 C 15,7 C 49 % 78 % 1018,8 hPa 0,0 l/m 0,0 km/h (0 Bft) N 0,00 h 0,0 UV-I 0 W/m 11,9 C 15,7 C 0,0 km/h (0 Bft)
02.09.2016 23:00 25,5 C 14,4 C 50 % 82 % 1018,9 hPa 0,0 l/m 0,0 km/h (0 Bft) N 0,00 h 0,0 UV-I 0 W/m 11,4 C 14,4 C 0,0 km/h (0 Bft)
03.09.2016 00:00 25,4 C 13,4 C 51 % 84 % 1018,9 hPa 0,0 l/m 0,0 km/h (0 Bft) N 0,00 h 0,0 UV-I 0 W/m 10,9 C 13,4 C 0,0 km/h (0 Bft)
03.09.2016 01:00 25,3 C 12,8 C 51 % 86 % 1018,8 hPa 0,0 l/m 0,0 km/h (0 Bft) N 0,00 h 0,0 UV-I 0 W/m 10,6 C 12,8 C 0,0 km/h (0 Bft)
03.09.2016 02:00 25,6 C 12,4 C 52 % 87 % 1018,6 hPa 0,0 l/m 0,0 km/h (0 Bft) N 0,00 h 0,0 UV-I 0 W/m 10,3 C 12,4 C 0,0 km/h (0 Bft)
03.09.2016 03:00 25,8 C 12,1 C 52 % 88 % 1018,2 hPa 0,0 l/m 0,0 km/h (0 Bft) N 0,00 h 0,0 UV-I 0 W/m 10,2 C 12,1 C 0,0 km/h (0 Bft)
03.09.2016 04:00 25,8 C 12,1 C 52 % 89 % 1018,1 hPa 0,0 l/m 0,0 km/h (0 Bft) N 0,00 h 0,0 UV-I 0 W/m 10,3 C 12,1 C 0,0 km/h (0 Bft)
03.09.2016 05:00 25,8 C 12,1 C 52 % 89 % 1018,3 hPa 0,0 l/m 0,0 km/h (0 Bft) N 0,00 h 0,0 UV-I 0 W/m 10,3 C 12,1 C 0,0 km/h (0 Bft)
03.09.2016 06:00 25,8 C 11,6 C 53 % 90 % 1018,2 hPa 0,0 l/m 0,0 km/h (0 Bft) N 0,00 h 0,0 UV-I 11 W/m 9,9 C 11,6 C 0,0 km/h (0 Bft)
03.09.2016 07:00 25,8 C 11,5 C 53 % 91 % 1018,1 hPa 0,0 l/m 0,0 km/h (0 Bft) N 0,00 h 0,0 UV-I 63 W/m 10,1 C 11,5 C 0,0 km/h (0 Bft)
03.09.2016 08:00 25,8 C 13,4 C 53 % 91 % 1018,5 hPa 0,0 l/m 0,0 km/h (0 Bft) N 0,00 h 0,6 UV-I 97 W/m 12,0 C 13,4 C 0,0 km/h (0 Bft)
03.09.2016 09:00 25,7 C 16,6 C 53 % 81 % 1018,6 hPa 0,0 l/m 0,0 km/h (0 Bft) N 0,98 h 1,5 UV-I 308 W/m 13,4 C 16,6 C 0,0 km/h (0 Bft)
03.09.2016 10:00 25,7 C 20,7 C 53 % 68 % 1018,6 hPa 0,0 l/m 1,9 km/h (1 Bft) W 1,00 h 2,5 UV-I 479 W/m 14,5 C 20,6 C 3,7 km/h (1 Bft)
03.09.2016 11:00 25,6 C 22,0 C 53 % 61 % 1018,4 hPa 0,0 l/m 4,3 km/h (1 Bft) W-SW 1,00 h 2,9 UV-I 431 W/m 14,2 C 21,9 C 8,8 km/h (2 Bft)
03.09.2016 12:00 25,4 C 22,4 C 51 % 57 % 1018,3 hPa 0,0 l/m 6,6 km/h (2 Bft) W-SW 1,00 h 3,0 UV-I 386 W/m 13,5 C 22,0 C 11,6 km/h (2 Bft)
03.09.2016 13:00 25,6 C 22,6 C 52 % 55 % 1018,1 hPa 0,0 l/m 6,1 km/h (2 Bft) W-SW 1,00 h 3,1 UV-I 403 W/m 13,1 C 22,3 C 12,3 km/h (3 Bft)
03.09.2016 14:00 25,5 C 22,8 C 51 % 54 % 1017,8 hPa 0,0 l/m 6,3 km/h (2 Bft) W 1,00 h 2,6 UV-I 345 W/m 12,9 C 22,4 C 11,9 km/h (2 Bft)
03.09.2016 15:00 25,4 C 22,5 C 52 % 57 % 1017,7 hPa 0,0 l/m 4,7 km/h (1 Bft) W 1,00 h 1,7 UV-I 226 W/m 13,5 C 22,3 C 9,5 km/h (2 Bft)
03.09.2016 16:00 25,3 C 21,9 C 52 % 58 % 1017,5 hPa 0,0 l/m 3,5 km/h (1 Bft) W-SW 0,70 h 1,2 UV-I 163 W/m 13,1 C 21,8 C 7,9 km/h (2 Bft)
03.09.2016 17:00 25,3 C 21,9 C 52 % 58 % 1017,3 hPa 0,0 l/m 2,9 km/h (1 Bft) W 0,63 h 0,9 UV-I 171 W/m 13,3 C 21,9 C 6,9 km/h (2 Bft)
03.09.2016 18:00 25,3 C 21,7 C 52 % 59 % 1017,0 hPa 0,0 l/m 0,3 km/h (0 Bft) W-SW 0,08 h 0,6 UV-I 94 W/m 13,3 C 21,7 C 1,0 km/h (0 Bft)
03.09.2016 19:00 25,6 C 20,2 C 52 % 65 % 1016,8 hPa 0,0 l/m 0,0 km/h (0 Bft) N 0,00 h 0,0 UV-I 24 W/m 13,4 C 20,2 C 0,0 km/h (0 Bft)
03.09.2016 20:00 25,5 C 18,1 C 52 % 74 % 1017,0 hPa 0,0 l/m 0,0 km/h (0 Bft) N 0,00 h 0,0 UV-I 0 W/m 13,4 C 18,1 C 0,0 km/h (0 Bft)
03.09.2016 21:00 25,6 C 16,0 C 53 % 83 % 1017,0 hPa 0,0 l/m 0,0 km/h (0 Bft) N 0,00 h 0,0 UV-I 0 W/m 13,1 C 16,0 C 0,0 km/h (0 Bft)
03.09.2016 22:00 25,7 C 14,9 C 53 % 86 % 1016,8 hPa 0,0 l/m 0,0 km/h (0 Bft) N 0,00 h 0,0 UV-I 0 W/m 12,6 C 14,9 C 0,0 km/h (0 Bft)
03.09.2016 23:00 25,4 C 14,2 C 53 % 86 % 1016,7 hPa 0,0 l/m 0,0 km/h (0 Bft) N 0,00 h 0,0 UV-I 0 W/m 12,0 C 14,2 C 0,0 km/h (0 Bft)
04.09.2016 00:00 25,3 C 13,5 C 53 % 88 % 1016,3 hPa 0,0 l/m 0,0 km/h (0 Bft) N 0,00 h 0,0 UV-I 0 W/m 11,5 C 13,5 C 0,0 km/h (0 Bft)
04.09.2016 01:00 25,2 C 12,7 C 54 % 90 % 1016,0 hPa 0,0 l/m 0,0 km/h (0 Bft) N 0,00 h 0,0 UV-I 0 W/m 11,1 C 12,7 C 0,0 km/h (0 Bft)
04.09.2016 02:00 25,2 C 12,1 C 54 % 90 % 1015,6 hPa 0,0 l/m 0,0 km/h (0 Bft) N 0,00 h 0,0 UV-I 0 W/m 10,5 C 12,1 C 0,0 km/h (0 Bft)
04.09.2016 03:00 25,1 C 11,5 C 54 % 91 % 1015,4 hPa 0,0 l/m 0,0 km/h (0 Bft) N 0,00 h 0,0 UV-I 0 W/m 10,0 C 11,5 C 0,0 km/h (0 Bft)
04.09.2016 04:00 25,1 C 11,0 C 54 % 92 % 1015,0 hPa 0,0 l/m 0,0 km/h (0 Bft) N 0,00 h 0,0 UV-I 0 W/m 9,8 C 11,0 C 0,0 km/h (0 Bft)
04.09.2016 05:00 25,1 C 11,0 C 54 % 93 % 1014,9 hPa 0,0 l/m 0,0 km/h (0 Bft) N 0,00 h 0,0 UV-I 0 W/m 9,9 C 11,0 C 0,0 km/h (0 Bft)
04.09.2016 06:00 25,1 C 11,3 C 55 % 94 % 1014,7 hPa 0,0 l/m 0,0 km/h (0 Bft) N 0,00 h 0,0 UV-I 13 W/m 10,4 C 11,3 C 0,0 km/h (0 Bft)
04.09.2016 07:00 25,1 C 12,1 C 53 % 95 % 1014,6 hPa 0,0 l/m 0,0 km/h (0 Bft) N 0,00 h 0,0 UV-I 25 W/m 11,3 C 12,1 C 0,1 km/h (0 Bft)
04.09.2016 08:00 25,3 C 15,2 C 54 % 90 % 1014,6 hPa 0,0 l/m 1,8 km/h (1 Bft) S 0,92 h 0,8 UV-I 257 W/m 13,5 C 15,1 C 3,1 km/h (1 Bft)
04.09.2016 09:00 25,4 C 19,4 C 53 % 70 % 1014,4 hPa 0,0 l/m 5,4 km/h (1 Bft) SW 1,00 h 1,6 UV-I 357 W/m 13,8 C 19,1 C 9,8 km/h (2 Bft)
04.09.2016 10:00 25,2 C 20,4 C 53 % 66 % 1014,2 hPa 0,0 l/m 4,8 km/h (1 Bft) W-SW 1,00 h 2,2 UV-I 354 W/m 13,8 C 20,3 C 9,8 km/h (2 Bft)
04.09.2016 11:00 25,1 C 20,9 C 53 % 66 % 1013,9 hPa 0,0 l/m 4,3 km/h (1 Bft) S 1,00 h 2,2 UV-I 296 W/m 14,3 C 20,7 C 9,2 km/h (2 Bft)
04.09.2016 12:00 25,1 C 22,2 C 52 % 59 % 1013,5 hPa 0,0 l/m 9,0 km/h (2 Bft) W-SW 1,00 h 3,0 UV-I 383 W/m 13,8 C 21,4 C 17,1 km/h (3 Bft)
04.09.2016 13:00 25,3 C 21,9 C 52 % 58 % 1013,6 hPa 0,0 l/m 12,4 km/h (3 Bft) W 0,57 h 1,6 UV-I 188 W/m 13,1 C 20,2 C 23,7 km/h (4 Bft)
04.09.2016 14:00 25,4 C 19,2 C 53 % 74 % 1013,2 hPa 0,0 l/m 5,1 km/h (1 Bft) W 0,42 h 1,5 UV-I 197 W/m 14,5 C 18,7 C 11,5 km/h (2 Bft)
04.09.2016 15:00 25,4 C 20,0 C 53 % 69 % 1012,8 hPa 0,0 l/m 3,7 km/h (1 Bft) W-SW 1,00 h 1,9 UV-I 272 W/m 14,3 C 20,0 C 8,3 km/h (2 Bft)
04.09.2016 16:00 25,4 C 20,0 C 53 % 70 % 1012,3 hPa 0,0 l/m 2,6 km/h (1 Bft) S 0,42 h 1,0 UV-I 151 W/m 14,4 C 19,9 C 6,7 km/h (2 Bft)
04.09.2016 17:00 25,5 C 20,1 C 53 % 69 % 1011,7 hPa 0,0 l/m 5,1 km/h (1 Bft) W-SW 0,00 h 0,6 UV-I 91 W/m 14,3 C 19,9 C 11,9 km/h (2 Bft)
04.09.2016 18:00 25,6 C 20,0 C 53 % 69 % 1011,3 hPa 0,0 l/m 4,9 km/h (1 Bft) SW 0,03 h 0,0 UV-I 87 W/m 14,2 C 19,7 C 11,8 km/h (2 Bft)
04.09.2016 19:00 25,5 C 18,4 C 54 % 77 % 1011,4 hPa 1,4 l/m 6,1 km/h (2 Bft) W-SW 0,00 h 0,0 UV-I 11 W/m 14,3 C 17,9 C 14,5 km/h (3 Bft)
04.09.2016 20:00 25,5 C 16,3 C 54 % 91 % 1011,8 hPa 0,2 l/m 3,7 km/h (1 Bft) SW 0,00 h 0,0 UV-I 0 W/m 14,8 C 16,1 C 10,0 km/h (2 Bft)
04.09.2016 21:00 25,6 C 16,3 C 54 % 91 % 1011,8 hPa 0,0 l/m 7,5 km/h (2 Bft) W-SW 0,00 h 0,0 UV-I 0 W/m 14,7 C 15,2 C 15,8 km/h (3 Bft)
04.09.2016 22:00 25,7 C 16,0 C 55 % 90 % 1011,7 hPa 2,4 l/m 5,1 km/h (1 Bft) SW 0,00 h 0,0 UV-I 0 W/m 14,4 C 15,6 C 11,9 km/h (2 Bft)
04.09.2016 23:00 25,4 C 14,7 C 55 % 91 % 1012,5 hPa 1,8 l/m 2,7 km/h (1 Bft) W-SW 0,00 h 0,0 UV-I 0 W/m 13,2 C 14,5 C 8,0 km/h (2 Bft)
Min-Datum _ 30.08.16 01.09.16 31.08.16 31.08.16 04.09.16 - 29.08.16 - - - - 31.08.16 01.09.16 29.08.16
_ Min-Zeit 07:44 06:15 17:03 15:46 18:25 - 00:00 - - - - 17:39 06:15 00:00
Minimum _ 24,6 C 9,2 C 40 % 32 % 1011,1 hPa - 0,0 km/h (0 Bft) - - - - 6,4 C 9,2 C 0,0 km/h (0 Bft)
Max-Datum _ 29.08.16 01.09.16 29.08.16 30.08.16 30.08.16 04.09.16 04.09.16 - 29.08.16 30.08.16 01.09.16 29.08.16 01.09.16 04.09.16
_ Max-Zeit 04:07 13:55 09:29 07:53 10:48 22:48 13:31 - 15:38 12:29 13:20 10:24 13:55 13:30
Maximum _ 26,1 C 26,9 C 58 % 96 % 1024,7 hPa 2,4 l/m 24,1 km/h
W (4 Bft)
- 0,07 h 5,4 UV-I 960 W/m 18,3 C 26,9 C 37,0 km/h
W (5 Bft)
Durchschnitt _ 25,4 C 17,7 C 51 % 71 % 1018,9 hPa #6,4 l/m 1,7 km/h (1 Bft) W-SW #61:14 h 2,2 UV-I 296 W/m 11,8 C 17,7 C 3,8 km/h (1 Bft)